Time;durP1;ratioP1;P1;durP2;ratioP2;P2;SDS_P1;SDS_P2;PMS_P1;PMS_P2;Temp;Humidity;BMP_temperature;BMP_pressure;BME280_temperature;BME280_humidity;BME280_pressure;Samples;Min_cycle;Max_cycle;Signal;HPM_P1;HPM_P2
2023/10/06 00:00:44;;;;;;;;;;;;;;;18.78;100.00;100371.53;4914320;29;20017;-82
2023/10/06 00:03:14;;;;;;;;;;;;;;;18.73;100.00;100381.91;4917646;29;19971;-84
2023/10/06 00:05:49;;;;;;;;;;;;;;;18.73;100.00;100380.03;4916739;29;20265;-85
2023/10/06 00:08:17;;;;;;;;;;;;;;;18.73;100.00;100382.72;4920384;29;19930;-85
2023/10/06 00:10:54;;;;;;;;;;;;;;;18.69;100.00;100380.56;4917863;29;19934;-85
2023/10/06 00:13:28;;;;;;;;;;;;;;;18.73;100.00;100379.25;4918118;29;20291;-85
2023/10/06 00:15:55;;;;;;;;;;;;;;;18.72;100.00;100393.63;4921246;29;20415;-85
2023/10/06 00:18:23;;;;;;;;;;;;;;;18.68;100.00;100387.75;4917958;29;20350;-84
2023/10/06 00:20:49;;;;;;;;;;;;;;;18.66;100.00;100384.44;4916528;29;19919;-84
2023/10/06 00:23:21;;;;;;;;;;;;;;;18.66;100.00;100388.97;4919271;29;19930;-84
2023/10/06 00:25:51;;;;;;;;;;;;;;;18.60;100.00;100387.00;4918106;29;20022;-84
2023/10/06 00:28:19;;;;;;;;;;;;;;;18.56;100.00;100388.31;4921115;29;20640;-84
2023/10/06 00:30:58;;;;;;;;;;;;;;;18.57;100.00;100390.00;4920618;29;19923;-84
2023/10/06 00:33:32;;;;;;;;;;;;;;;18.53;100.00;100388.66;4902454;29;19934;-85
2023/10/06 00:36:07;;;;;;;;;;;;;;;18.49;100.00;100385.50;4919030;29;19923;-85
2023/10/06 00:38:36;;;;;;;;;;;;;;;18.49;100.00;100384.66;4919510;29;19948;-84
2023/10/06 00:41:06;;;;;;;;;;;;;;;18.41;100.00;100386.38;4901156;29;20046;-84
2023/10/06 00:43:36;;;;;;;;;;;;;;;18.17;100.00;100383.78;4918616;29;19962;-84
2023/10/06 00:46:08;;;;;;;;;;;;;;;18.21;100.00;100389.59;4916836;29;19923;-85
2023/10/06 00:48:39;;;;;;;;;;;;;;;18.25;100.00;100386.44;4919847;29;19930;-85
2023/10/06 00:51:19;;;;;;;;;;;;;;;18.28;100.00;100385.22;4919775;29;20006;-84
2023/10/06 00:53:44;;;;;;;;;;;;;;;18.32;100.00;100386.53;4909985;29;19919;-86
2023/10/06 00:56:10;;;;;;;;;;;;;;;18.37;100.00;100390.41;4925318;29;19978;-85
2023/10/06 00:58:41;;;;;;;;;;;;;;;18.39;100.00;100382.19;4895616;29;19935;-86
2023/10/06 01:01:13;;;;;;;;;;;;;;;18.36;100.00;100383.38;4897488;29;19927;-85
2023/10/06 01:03:42;;;;;;;;;;;;;;;18.40;100.00;100378.50;4894850;29;19927;-86
2023/10/06 01:06:23;;;;;;;;;;;;;;;18.42;100.00;100377.34;4916057;29;19934;-86
2023/10/06 01:08:54;;;;;;;;;;;;;;;18.44;100.00;100381.69;4922515;29;20306;-85
2023/10/06 01:11:20;;;;;;;;;;;;;;;18.45;100.00;100378.81;4917468;29;19927;-85
2023/10/06 01:13:55;;;;;;;;;;;;;;;18.41;100.00;100373.00;4914015;29;19945;-86
2023/10/06 01:16:37;;;;;;;;;;;;;;;18.36;100.00;100383.38;4914308;29;19930;-87
2023/10/06 01:19:48;;;;;;;;;;;;;;;18.34;100.00;100373.84;4914898;29;20014;-86
2023/10/06 01:21:52;;;;;;;;;;;;;;;18.33;100.00;100381.03;4890213;29;19930;-86
2023/10/06 01:24:27;;;;;;;;;;;;;;;18.28;100.00;100379.88;4912621;29;19938;-85
2023/10/06 01:26:59;;;;;;;;;;;;;;;18.19;100.00;100381.78;4915396;29;19943;-85
2023/10/06 01:29:31;;;;;;;;;;;;;;;18.15;100.00;100380.44;4915859;29;19926;-84
2023/10/06 01:31:57;;;;;;;;;;;;;;;18.03;100.00;100381.78;4915142;29;19923;-85
2023/10/06 01:34:24;;;;;;;;;;;;;;;17.91;100.00;100375.97;4914403;29;19926;-86
2023/10/06 01:36:53;;;;;;;;;;;;;;;17.72;100.00;100387.03;4917751;29;19923;-88
2023/10/06 01:39:22;;;;;;;;;;;;;;;17.66;100.00;100385.03;4904065;29;20479;-87
2023/10/06 01:41:48;;;;;;;;;;;;;;;17.63;100.00;100379.19;4920724;29;19923;-88
2023/10/06 01:44:15;;;;;;;;;;;;;;;17.64;100.00;100380.88;4917480;29;20022;-86
2023/10/06 01:46:41;;;;;;;;;;;;;;;17.43;100.00;100379.53;4899415;29;20284;-85
2023/10/06 01:49:10;;;;;;;;;;;;;;;17.44;100.00;100381.16;4915482;29;19963;-84
2023/10/06 01:51:39;;;;;;;;;;;;;;;17.38;100.00;100381.81;4895212;29;20448;-85
2023/10/06 01:54:12;;;;;;;;;;;;;;;17.34;100.00;100385.00;4912824;29;19924;-85
2023/10/06 01:56:42;;;;;;;;;;;;;;;17.35;100.00;100374.19;4894963;29;20487;-85
2023/10/06 01:59:10;;;;;;;;;;;;;;;17.42;100.00;100371.69;4913169;29;20331;-87
2023/10/06 02:01:38;;;;;;;;;;;;;;;17.52;100.00;100377.66;4896922;29;19923;-86
2023/10/06 02:04:07;;;;;;;;;;;;;;;17.51;100.00;100376.00;4912782;29;19927;-85
2023/10/06 02:06:33;;;;;;;;;;;;;;;17.54;100.00;100376.50;4915312;29;19935;-86
2023/10/06 02:08:59;;;;;;;;;;;;;;;17.58;100.00;100383.19;4899158;29;19919;-85
2023/10/06 02:11:30;;;;;;;;;;;;;;;17.62;100.00;100378.34;4917730;29;19961;-85
2023/10/06 02:13:57;;;;;;;;;;;;;;;17.69;100.00;100378.50;4903406;29;19978;-86
2023/10/06 02:16:26;;;;;;;;;;;;;;;17.68;100.00;100380.34;4918215;29;19938;-87
2023/10/06 02:18:53;;;;;;;;;;;;;;;17.67;100.00;100381.34;4900965;29;19930;-87
2023/10/06 02:21:24;;;;;;;;;;;;;;;17.70;100.00;100385.53;4920727;29;20384;-87
2023/10/06 02:23:51;;;;;;;;;;;;;;;17.74;100.00;100386.84;4921644;29;19927;-87
2023/10/06 02:26:17;;;;;;;;;;;;;;;17.45;100.00;100382.00;4919381;29;19934;-86
2023/10/06 02:28:48;;;;;;;;;;;;;;;17.34;100.00;100380.50;4920316;29;19923;-86
2023/10/06 02:31:14;;;;;;;;;;;;;;;17.36;100.00;100380.34;4915705;29;20375;-86
2023/10/06 02:33:40;;;;;;;;;;;;;;;17.41;100.00;100388.69;4914824;29;19923;-86
2023/10/06 02:36:23;;;;;;;;;;;;;;;17.46;100.00;100387.19;4900484;29;19923;-87
2023/10/06 02:38:49;;;;;;;;;;;;;;;17.50;100.00;100391.16;4906229;29;20006;-87
2023/10/06 02:41:18;;;;;;;;;;;;;;;17.49;100.00;100392.19;4913209;29;20059;-87
2023/10/06 02:43:53;;;;;;;;;;;;;;;17.52;100.00;100394.53;4916932;29;20002;-87
2023/10/06 02:46:25;;;;;;;;;;;;;;;17.45;100.00;100392.66;4923889;29;19923;-87
2023/10/06 02:48:51;;;;;;;;;;;;;;;17.47;100.00;100393.34;4917413;29;20311;-87
2023/10/06 02:51:18;;;;;;;;;;;;;;;17.45;100.00;100393.50;4912822;29;19933;-85
2023/10/06 02:53:49;;;;;;;;;;;;;;;17.41;100.00;100392.19;4898072;29;20441;-86
2023/10/06 02:56:16;;;;;;;;;;;;;;;17.39;100.00;100394.19;4911108;29;19923;-87
2023/10/06 02:58:42;;;;;;;;;;;;;;;17.41;100.00;100394.84;4913396;29;20014;-86
2023/10/06 03:01:11;;;;;;;;;;;;;;;17.41;100.00;100399.34;4910901;29;19974;-86
2023/10/06 03:03:36;;;;;;;;;;;;;;;17.35;100.00;100390.19;4895679;29;20658;-86
2023/10/06 03:06:07;;;;;;;;;;;;;;;17.34;100.00;100396.50;4896747;29;19924;-86
2023/10/06 03:08:33;;;;;;;;;;;;;;;17.27;100.00;100400.84;4898412;29;19937;-86
2023/10/06 03:11:00;;;;;;;;;;;;;;;17.08;100.00;100401.97;4911136;29;20014;-87
2023/10/06 03:16:01;;;;;;;;;;;;;;;17.07;100.00;100400.31;4911487;29;19923;-86
2023/10/06 03:18:27;;;;;;;;;;;;;;;17.07;100.00;100395.00;4896502;29;19923;-87
2023/10/06 03:21:01;;;;;;;;;;;;;;;17.04;100.00;100397.13;4916007;29;19974;-86
2023/10/06 03:23:32;;;;;;;;;;;;;;;17.04;100.00;100399.81;4899534;29;20379;-87
2023/10/06 03:25:57;;;;;;;;;;;;;;;17.07;100.00;100402.16;4915285;29;19929;-88
2023/10/06 03:28:31;;;;;;;;;;;;;;;17.04;100.00;100405.13;4912032;29;20427;-88
2023/10/06 03:31:02;;;;;;;;;;;;;;;17.04;100.00;100405.97;4913880;29;19930;-85
2023/10/06 03:33:29;;;;;;;;;;;;;;;17.07;100.00;100405.66;4898620;29;20017;-86
2023/10/06 03:35:57;;;;;;;;;;;;;;;17.04;100.00;100407.78;4891958;29;20402;-85
2023/10/06 03:43:33;;;;;;;;;;;;;;;17.06;100.00;100414.66;4914919;29;20030;-86
2023/10/06 03:46:00;;;;;;;;;;;;;;;17.05;100.00;100412.13;4900854;29;20419;-84
2023/10/06 03:48:29;;;;;;;;;;;;;;;17.01;100.00;100410.81;4897039;29;19930;-86
2023/10/06 03:50:55;;;;;;;;;;;;;;;17.02;100.00;100415.94;4918678;29;19990;-86
2023/10/06 03:53:23;;;;;;;;;;;;;;;17.02;100.00;100413.28;4918754;29;20344;-86
2023/10/06 03:55:48;;;;;;;;;;;;;;;16.98;100.00;100414.63;4899591;29;20022;-87
2023/10/06 03:58:16;;;;;;;;;;;;;;;16.94;100.00;100415.13;4902694;29;19931;-88
2023/10/06 04:00:47;;;;;;;;;;;;;;;16.87;100.00;100412.25;4912121;29;19982;-88
2023/10/06 04:03:13;;;;;;;;;;;;;;;16.84;100.00;100423.25;4912395;29;20850;-88
2023/10/06 04:05:44;;;;;;;;;;;;;;;16.83;100.00;100423.41;4919044;29;19923;-86
2023/10/06 04:08:13;;;;;;;;;;;;;;;16.82;100.00;100424.41;4920447;29;20279;-88
2023/10/06 04:10:42;;;;;;;;;;;;;;;16.87;100.00;100430.09;4914329;29;20379;-87
2023/10/06 04:13:08;;;;;;;;;;;;;;;16.85;100.00;100432.09;4915699;29;20337;-87
2023/10/06 04:15:38;;;;;;;;;;;;;;;16.83;100.00;100420.75;4913096;29;20006;-87
2023/10/06 04:18:10;;;;;;;;;;;;;;;16.77;100.00;100425.75;4895473;29;19937;-87
2023/10/06 04:20:39;;;;;;;;;;;;;;;16.81;100.00;100420.06;4912838;29;20354;-86
2023/10/06 04:23:06;;;;;;;;;;;;;;;16.77;100.00;100423.06;4916966;29;20259;-85
2023/10/06 04:25:37;;;;;;;;;;;;;;;16.67;100.00;100430.34;4892107;29;19939;-86
2023/10/06 04:28:04;;;;;;;;;;;;;;;16.57;100.00;100429.59;4915476;29;20014;-86
2023/10/06 04:30:29;;;;;;;;;;;;;;;16.52;100.00;100431.91;4916696;29;19923;-84
2023/10/06 04:32:55;;;;;;;;;;;;;;;16.44;100.00;100429.22;4912834;29;19923;-87
2023/10/06 04:35:24;;;;;;;;;;;;;;;16.24;100.00;100422.47;4922513;29;20406;-87
2023/10/06 04:37:50;;;;;;;;;;;;;;;16.24;100.00;100425.13;4916300;29;19934;-90
2023/10/06 04:40:20;;;;;;;;;;;;;;;16.28;100.00;100423.81;4920586;29;19927;-90
2023/10/06 04:42:46;;;;;;;;;;;;;;;16.32;100.00;100430.47;4919725;29;19947;-87
2023/10/06 04:45:14;;;;;;;;;;;;;;;16.35;100.00;100435.50;4910243;29;19925;-88
2023/10/06 04:47:40;;;;;;;;;;;;;;;16.40;100.00;100427.88;4921265;29;20386;-89
2023/10/06 04:50:12;;;;;;;;;;;;;;;16.43;100.00;100438.22;4922216;29;19923;-84
2023/10/06 04:52:38;;;;;;;;;;;;;;;16.44;100.00;100431.03;4926609;29;19927;-89
2023/10/06 04:55:04;;;;;;;;;;;;;;;16.47;100.00;100434.25;4917116;29;19935;-85
2023/10/06 04:57:29;;;;;;;;;;;;;;;16.50;100.00;100433.91;4913287;29;19923;-85
2023/10/06 04:59:55;;;;;;;;;;;;;;;16.54;100.00;100435.28;4914557;29;19967;-82
2023/10/06 05:02:22;;;;;;;;;;;;;;;16.55;100.00;100433.44;4913449;29;19927;-87
2023/10/06 05:04:47;;;;;;;;;;;;;;;16.59;100.00;100438.31;4920663;29;20340;-89
2023/10/06 05:07:13;;;;;;;;;;;;;;;16.61;100.00;100436.31;4911493;29;19926;-88
2023/10/06 05:09:40;;;;;;;;;;;;;;;16.67;100.00;100434.88;4914387;29;19919;-88
2023/10/06 05:12:05;;;;;;;;;;;;;;;16.72;100.00;100438.72;4918030;29;19923;-84
2023/10/06 05:14:34;;;;;;;;;;;;;;;16.69;100.00;100431.03;4913883;29;19982;-84
2023/10/06 05:16:59;;;;;;;;;;;;;;;16.75;100.00;100441.03;4896951;29;19979;-84
2023/10/06 05:19:26;;;;;;;;;;;;;;;16.81;100.00;100446.72;4917081;29;19923;-82
2023/10/06 05:21:53;;;;;;;;;;;;;;;16.83;100.00;100450.06;4895923;29;20351;-86
2023/10/06 05:24:18;;;;;;;;;;;;;;;16.82;100.00;100443.06;4913052;29;19974;-86
2023/10/06 05:26:44;;;;;;;;;;;;;;;16.83;100.00;100444.75;4914105;29;19927;-85
2023/10/06 05:29:11;;;;;;;;;;;;;;;16.79;100.00;100447.72;4915200;29;20006;-85
2023/10/06 05:31:37;;;;;;;;;;;;;;;16.82;100.00;100454.56;4915422;29;19934;-82
2023/10/06 05:34:07;;;;;;;;;;;;;;;16.87;100.00;100451.41;4912414;29;19920;-82
2023/10/06 05:36:32;;;;;;;;;;;;;;;16.93;100.00;100456.09;4911299;29;19968;-79
2023/10/06 05:38:59;;;;;;;;;;;;;;;16.94;100.00;100452.44;4910292;29;19923;-81
2023/10/06 05:41:34;;;;;;;;;;;;;;;16.89;100.00;100457.44;4906725;29;20333;-79
2023/10/06 05:43:59;;;;;;;;;;;;;;;16.83;100.00;100455.41;4910664;29;20014;-80
2023/10/06 05:46:25;;;;;;;;;;;;;;;16.81;100.00;100462.72;4908468;29;20022;-80
2023/10/06 05:48:51;;;;;;;;;;;;;;;16.79;100.00;100466.38;4913321;29;20017;-79
2023/10/06 05:51:21;;;;;;;;;;;;;;;16.73;100.00;100467.00;4908943;29;19930;-80
2023/10/06 05:53:48;;;;;;;;;;;;;;;16.68;100.00;100469.31;4908275;29;19923;-80
2023/10/06 05:56:15;;;;;;;;;;;;;;;16.66;100.00;100479.34;4909653;29;20321;-79
2023/10/06 05:58:43;;;;;;;;;;;;;;;16.72;100.00;100467.19;4912532;29;19923;-80
2023/10/06 06:01:18;;;;;;;;;;;;;;;16.79;100.00;100478.88;4908324;29;20002;-82
2023/10/06 06:03:47;;;;;;;;;;;;;;;16.81;100.00;100484.88;4907483;29;19927;-82
2023/10/06 06:06:14;;;;;;;;;;;;;;;16.85;100.00;100485.41;4908459;29;19930;-81
2023/10/06 06:08:43;;;;;;;;;;;;;;;16.86;100.00;100489.72;4910146;29;19975;-81
2023/10/06 06:11:08;;;;;;;;;;;;;;;16.86;100.00;100493.22;4919577;29;19972;-81
2023/10/06 06:13:36;;;;;;;;;;;;;;;16.90;100.00;100493.75;4928538;29;19930;-82
2023/10/06 06:16:02;;;;;;;;;;;;;;;16.92;100.00;100499.75;4925017;29;20046;-80
2023/10/06 06:18:28;;;;;;;;;;;;;;;16.92;100.00;100499.75;4927803;29;19924;-79
2023/10/06 06:20:53;;;;;;;;;;;;;;;16.89;100.00;100502.75;4938190;23;19939;-76
2023/10/06 06:23:20;;;;;;;;;;;;;;;16.89;100.00;100497.41;4911570;29;19938;-77
2023/10/06 06:25:45;;;;;;;;;;;;;;;16.87;100.00;100510.06;4924987;29;19923;-76
2023/10/06 06:28:16;;;;;;;;;;;;;;;16.92;100.00;100519.25;4918151;29;20802;-77
2023/10/06 06:30:47;;;;;;;;;;;;;;;16.96;100.00;100522.44;4906932;29;20017;-76
2023/10/06 06:33:19;;;;;;;;;;;;;;;17.00;100.00;100521.13;4906633;29;20398;-75
2023/10/06 06:35:45;;;;;;;;;;;;;;;17.07;100.00;100527.50;4907053;29;19934;-76
2023/10/06 06:38:12;;;;;;;;;;;;;;;17.10;100.00;100527.16;4909971;29;19931;-76
2023/10/06 06:40:38;;;;;;;;;;;;;;;17.12;100.00;100530.50;4908817;29;19931;-76
2023/10/06 06:43:09;;;;;;;;;;;;;;;17.15;100.00;100540.84;4888729;29;20053;-76
2023/10/06 06:45:39;;;;;;;;;;;;;;;17.22;100.00;100541.88;4910151;29;19930;-76
2023/10/06 06:48:09;;;;;;;;;;;;;;;17.27;100.00;100544.88;4906318;29;19930;-77
2023/10/06 06:50:36;;;;;;;;;;;;;;;17.34;100.00;100545.91;4905128;29;20726;-77
2023/10/06 06:53:01;;;;;;;;;;;;;;;17.43;100.00;100544.13;4887345;29;19979;-77
2023/10/06 06:55:26;;;;;;;;;;;;;;;17.50;100.00;100545.94;4903743;29;20087;-75
2023/10/06 06:57:53;;;;;;;;;;;;;;;17.49;100.00;100552.31;4903717;29;19937;-77
2023/10/06 07:00:21;;;;;;;;;;;;;;;17.49;100.00;100554.97;4908236;29;19930;-79
2023/10/06 07:02:48;;;;;;;;;;;;;;;17.54;100.00;100549.13;4902734;29;20116;-77
2023/10/06 07:05:14;;;;;;;;;;;;;;;17.62;100.00;100551.84;4904314;29;20146;-76
2023/10/06 07:07:42;;;;;;;;;;;;;;;17.69;100.00;100560.88;4890232;29;20049;-77
2023/10/06 07:10:11;;;;;;;;;;;;;;;17.75;100.00;100560.22;4905337;29;20195;-76
2023/10/06 07:12:36;;;;;;;;;;;;;;;17.82;100.00;100561.22;4905050;29;19931;-78
2023/10/06 07:15:02;;;;;;;;;;;;;;;17.91;100.00;100570.06;4886566;29;20257;-77
2023/10/06 07:17:28;;;;;;;;;;;;;;;17.98;100.00;100571.06;4921755;29;20360;-78
2023/10/06 07:19:53;;;;;;;;;;;;;;;18.01;100.00;100576.09;4918318;29;20033;-78
2023/10/06 07:22:22;;;;;;;;;;;;;;;18.06;100.00;100579.09;4922240;29;19924;-77
2023/10/06 07:24:55;;;;;;;;;;;;;;;18.12;100.00;100583.78;4924475;29;19949;-77
2023/10/06 07:27:21;;;;;;;;;;;;;;;18.19;100.00;100590.13;4917209;29;20022;-76
2023/10/06 07:29:46;;;;;;;;;;;;;;;18.26;100.00;100592.97;4924366;29;19959;-75
2023/10/06 07:32:13;;;;;;;;;;;;;;;18.30;100.00;100602.31;4921556;29;19923;-77
2023/10/06 07:34:39;;;;;;;;;;;;;;;18.37;100.00;100603.34;4922460;29;19930;-77
2023/10/06 07:37:04;;;;;;;;;;;;;;;18.43;100.00;100602.66;4921963;29;20324;-76
2023/10/06 07:39:31;;;;;;;;;;;;;;;18.50;100.00;100608.97;4924203;29;20383;-77
2023/10/06 07:41:57;;;;;;;;;;;;;;;18.52;100.00;100595.44;4919485;29;19923;-77
2023/10/06 07:44:24;;;;;;;;;;;;;;;18.59;100.00;100607.19;4906124;29;19933;-76
2023/10/06 07:46:52;;;;;;;;;;;;;;;18.59;100.00;100621.38;4920607;29;19934;-78
2023/10/06 07:49:17;;;;;;;;;;;;;;;18.65;100.00;100617.19;4921028;29;20420;-77
2023/10/06 07:51:45;;;;;;;;;;;;;;;18.72;100.00;100618.19;4922817;29;20399;-79
2023/10/06 07:54:10;;;;;;;;;;;;;;;18.79;100.00;100616.53;4919541;29;20321;-78
2023/10/06 07:56:36;;;;;;;;;;;;;;;18.85;100.00;100615.00;4921526;29;19930;-80
2023/10/06 07:59:01;;;;;;;;;;;;;;;18.92;100.00;100622.16;4920141;29;19933;-77
2023/10/06 08:01:27;;;;;;;;;;;;;;;18.98;100.00;100624.16;4904899;29;19927;-78
2023/10/06 08:03:53;;;;;;;;;;;;;;;19.04;100.00;100633.31;4924359;29;19970;-78
2023/10/06 08:06:20;;;;;;;;;;;;;;;19.07;100.00;100625.81;4904294;29;20451;-77
2023/10/06 08:08:48;;;;;;;;;;;;;;;19.13;100.00;100622.44;4925173;29;20397;-78
2023/10/06 08:11:13;;;;;;;;;;;;;;;19.16;100.00;100627.44;4921000;29;19923;-77
2023/10/06 08:13:40;;;;;;;;;;;;;;;19.20;100.00;100628.75;4905489;29;19923;-77
2023/10/06 08:16:08;;;;;;;;;;;;;;;19.23;100.00;100623.06;4927435;29;20352;-78
2023/10/06 08:18:33;;;;;;;;;;;;;;;19.29;100.00;100628.75;4906502;29;20039;-78
2023/10/06 08:21:03;;;;;;;;;;;;;;;19.31;100.00;100629.41;4925258;29;20290;-78
2023/10/06 08:23:37;;;;;;;;;;;;;;;19.36;100.00;100633.25;4928672;29;20021;-78
2023/10/06 08:26:08;;;;;;;;;;;;;;;19.41;100.00;100632.72;4929561;29;19946;-78
2023/10/06 08:28:33;;;;;;;;;;;;;;;19.47;100.00;100635.56;4908723;29;19923;-78
2023/10/06 08:31:00;;;;;;;;;;;;;;;19.53;100.00;100639.38;4924426;29;19997;-78
2023/10/06 08:33:27;;;;;;;;;;;;;;;19.58;100.00;100642.38;4925955;29;19923;-78
2023/10/06 08:35:56;;;;;;;;;;;;;;;19.67;100.00;100635.97;4926519;29;20089;-78
2023/10/06 08:38:24;;;;;;;;;;;;;;;19.76;100.00;100650.97;4923743;29;19923;-76
2023/10/06 08:40:53;;;;;;;;;;;;;;;19.80;100.00;100646.09;4923640;29;19967;-78
2023/10/06 08:43:22;;;;;;;;;;;;;;;19.87;100.00;100647.91;4923777;29;19979;-78
2023/10/06 08:45:47;;;;;;;;;;;;;;;19.88;100.00;100654.09;4920626;29;19923;-78
2023/10/06 08:48:13;;;;;;;;;;;;;;;19.91;100.00;100651.09;4922065;29;19929;-74
2023/10/06 08:50:41;;;;;;;;;;;;;;;19.96;100.00;100646.88;4920656;29;19945;-77
2023/10/06 08:53:09;;;;;;;;;;;;;;;20.00;100.00;100645.50;4926375;29;20009;-76
2023/10/06 08:55:38;;;;;;;;;;;;;;;20.02;100.00;100654.19;4923160;29;19930;-75
2023/10/06 08:58:04;;;;;;;;;;;;;;;20.04;100.00;100652.16;4925503;29;19942;-75
2023/10/06 09:00:32;;;;;;;;;;;;;;;20.08;100.00;100649.13;4899597;29;20407;-76
2023/10/06 09:03:07;;;;;;;;;;;;;;;20.16;100.00;100662.47;4924324;29;19927;-78
2023/10/06 09:05:38;;;;;;;;;;;;;;;20.22;100.00;100656.38;4920377;29;20273;-77
2023/10/06 09:08:05;;;;;;;;;;;;;;;20.24;100.00;100655.22;4925591;29;20340;-76
2023/10/06 09:10:32;;;;;;;;;;;;;;;20.32;100.00;100657.03;4906046;29;19929;-77
2023/10/06 09:13:05;;;;;;;;;;;;;;;20.41;100.00;100655.94;4921219;29;20006;-77
2023/10/06 09:15:31;;;;;;;;;;;;;;;20.48;100.00;100651.53;4925840;29;19923;-81
2023/10/06 09:17:57;;;;;;;;;;;;;;;20.52;100.00;100655.50;4926543;29;19978;-76
2023/10/06 09:20:36;;;;;;;;;;;;;;;20.58;100.00;100652.13;4923070;29;19930;-77
2023/10/06 09:23:03;;;;;;;;;;;;;;;20.63;100.00;100655.09;4925790;29;19970;-77
2023/10/06 09:25:39;;;;;;;;;;;;;;;20.72;100.00;100654.00;4925246;29;19923;-77
2023/10/06 09:28:08;;;;;;;;;;;;;;;20.80;100.00;100656.59;4920183;29;20372;-78
2023/10/06 09:30:50;;;;;;;;;;;;;;;20.80;100.00;100650.41;4923267;29;19994;-78
2023/10/06 09:33:15;;;;;;;;;;;;;;;20.83;100.00;100644.69;4923452;29;19979;-78
2023/10/06 09:35:43;;;;;;;;;;;;;;;20.89;100.00;100648.47;4921580;29;20005;-78
2023/10/06 09:38:15;;;;;;;;;;;;;;;20.88;100.00;100644.13;4918805;29;19935;-77
2023/10/06 09:40:44;;;;;;;;;;;;;;;20.91;100.00;100641.09;4922968;29;19979;-76
2023/10/06 09:43:17;;;;;;;;;;;;;;;20.97;100.00;100638.47;4926720;29;19927;-75
2023/10/06 09:45:42;;;;;;;;;;;;;;;21.04;100.00;100644.78;4921086;29;20005;-77
2023/10/06 09:48:13;;;;;;;;;;;;;;;21.09;100.00;100645.06;4920533;29;20342;-77
2023/10/06 09:50:41;;;;;;;;;;;;;;;21.13;100.00;100645.53;4923407;29;19931;-76
2023/10/06 09:53:10;;;;;;;;;;;;;;;21.14;100.00;100637.31;4908134;29;19970;-77
2023/10/06 09:55:36;;;;;;;;;;;;;;;21.15;100.00;100641.69;4924029;29;20343;-76
2023/10/06 09:58:03;;;;;;;;;;;;;;;21.24;100.00;100632.53;4922093;29;19923;-76
2023/10/06 10:00:29;;;;;;;;;;;;;;;21.35;100.00;100647.34;4924149;29;19930;-76
2023/10/06 10:02:57;;;;;;;;;;;;;;;21.43;100.00;100641.88;4921954;29;19923;-76
2023/10/06 10:05:24;;;;;;;;;;;;;;;21.52;100.00;100640.75;4923403;29;20343;-77
2023/10/06 10:07:49;;;;;;;;;;;;;;;21.57;100.00;100641.00;4905856;29;19924;-78
2023/10/06 10:10:16;;;;;;;;;;;;;;;21.62;100.00;100635.91;4925641;29;19930;-77
2023/10/06 10:12:52;;;;;;;;;;;;;;;21.62;100.00;100630.53;4922823;29;19930;-77
2023/10/06 10:15:32;;;;;;;;;;;;;;;21.63;100.00;100637.56;4922244;29;19930;-78
2023/10/06 10:18:05;;;;;;;;;;;;;;;21.65;100.00;100635.53;4923590;29;19930;-78
2023/10/06 10:20:32;;;;;;;;;;;;;;;21.67;100.00;100627.31;4923668;29;20047;-78
2023/10/06 10:22:58;;;;;;;;;;;;;;;21.75;100.00;100639.75;4923381;29;20026;-78
2023/10/06 10:25:24;;;;;;;;;;;;;;;21.78;100.00;100629.50;4924729;29;19947;-77
2023/10/06 10:28:13;;;;;;;;;;;;;;;21.86;100.00;100631.22;4922048;29;19922;-77
2023/10/06 10:30:50;;;;;;;;;;;;;;;21.95;100.00;100630.94;4916605;29;20010;-79
2023/10/06 10:33:25;;;;;;;;;;;;;;;22.03;100.00;100627.31;4908718;29;19923;-78
2023/10/06 10:36:09;;;;;;;;;;;;;;;22.11;100.00;100629.03;4922560;29;20368;-78
2023/10/06 10:38:34;;;;;;;;;;;;;;;22.19;100.00;100632.44;4922861;29;19927;-78
2023/10/06 10:41:01;;;;;;;;;;;;;;;22.21;100.00;100627.69;4923740;29;20399;-78
2023/10/06 10:43:27;;;;;;;;;;;;;;;22.20;100.00;100623.34;4924195;29;19923;-78
2023/10/06 10:45:54;;;;;;;;;;;;;;;22.28;100.00;100625.91;4923037;29;19923;-78
2023/10/06 10:48:21;;;;;;;;;;;;;;;22.31;100.00;100622.84;4924919;29;19930;-79
2023/10/06 10:50:52;;;;;;;;;;;;;;;22.36;100.00;100616.88;4922224;29;19923;-78
2023/10/06 10:53:18;;;;;;;;;;;;;;;22.42;100.00;100616.94;4908676;29;19933;-78
2023/10/06 10:55:45;;;;;;;;;;;;;;;22.49;100.00;100608.09;4922039;29;19931;-79
2023/10/06 10:58:10;;;;;;;;;;;;;;;22.56;100.00;100608.97;4921497;29;19927;-78
2023/10/06 11:00:36;;;;;;;;;;;;;;;22.59;100.00;100605.88;4924209;29;20411;-79
2023/10/06 11:03:03;;;;;;;;;;;;;;;22.61;100.00;100609.22;4924930;29;19983;-78
2023/10/06 11:05:28;;;;;;;;;;;;;;;22.65;100.00;100599.72;4923855;29;19923;-79
2023/10/06 11:08:01;;;;;;;;;;;;;;;22.71;100.00;100601.63;4922293;29;19927;-78
2023/10/06 11:10:27;;;;;;;;;;;;;;;22.82;100.00;100595.75;4923851;29;19923;-78
2023/10/06 11:13:11;;;;;;;;;;;;;;;22.91;100.00;100597.25;4922206;29;20332;-77
2023/10/06 11:15:37;;;;;;;;;;;;;;;22.94;100.00;100593.31;4922626;29;19923;-78
2023/10/06 11:18:05;;;;;;;;;;;;;;;23.00;100.00;100601.44;4923302;29;19985;-78
2023/10/06 11:20:35;;;;;;;;;;;;;;;23.05;100.00;100598.97;4923297;29;19923;-78
2023/10/06 11:23:00;;;;;;;;;;;;;;;23.11;100.00;100589.28;4922933;29;19934;-78
2023/10/06 11:25:30;;;;;;;;;;;;;;;23.14;100.00;100589.72;4923586;29;19923;-78
2023/10/06 11:27:56;;;;;;;;;;;;;;;23.24;100.00;100590.19;4921257;29;19923;-78
2023/10/06 11:30:23;;;;;;;;;;;;;;;23.35;100.00;100585.25;4921804;29;19978;-78
2023/10/06 11:32:50;;;;;;;;;;;;;;;23.46;100.00;100579.28;4925010;29;19978;-78
2023/10/06 11:35:16;;;;;;;;;;;;;;;23.46;100.00;100576.59;4921450;29;20395;-78
2023/10/06 11:37:42;;;;;;;;;;;;;;;23.61;100.00;100570.06;4907660;29;20383;-79
2023/10/06 11:40:08;;;;;;;;;;;;;;;23.72;100.00;100565.94;4922021;29;19930;-78
2023/10/06 11:42:35;;;;;;;;;;;;;;;23.77;100.00;100558.06;4923066;29;20064;-78
2023/10/06 11:45:07;;;;;;;;;;;;;;;23.84;100.00;100564.31;4922854;29;19923;-78
2023/10/06 11:47:32;;;;;;;;;;;;;;;23.84;100.00;100558.09;4923248;29;19978;-79
2023/10/06 11:49:59;;;;;;;;;;;;;;;23.88;100.00;100562.88;4923662;29;19923;-79
2023/10/06 11:52:25;;;;;;;;;;;;;;;24.02;100.00;100551.06;4925274;29;19927;-77
2023/10/06 11:54:51;;;;;;;;;;;;;;;24.15;100.00;100546.72;4928086;29;19933;-77
2023/10/06 11:57:39;;;;;;;;;;;;;;;24.29;100.00;100540.31;4924660;29;20110;-77
2023/10/06 12:00:10;;;;;;;;;;;;;;;24.43;100.00;100537.41;4926582;29;19971;-79
2023/10/06 12:02:50;;;;;;;;;;;;;;;24.56;100.00;100535.75;4925889;29;19923;-78
2023/10/06 12:05:16;;;;;;;;;;;;;;;24.69;100.00;100528.44;4923824;29;19934;-74
2023/10/06 12:07:42;;;;;;;;;;;;;;;24.81;100.00;100523.22;4920881;29;20480;-79
2023/10/06 12:10:08;;;;;;;;;;;;;;;24.93;100.00;100526.13;4927349;29;20013;-77
2023/10/06 12:12:34;;;;;;;;;;;;;;;25.05;100.00;100513.59;4926355;29;19931;-80
2023/10/06 12:14:59;;;;;;;;;;;;;;;25.18;100.00;100518.97;4911495;29;20326;-79
2023/10/06 12:17:27;;;;;;;;;;;;;;;25.28;100.00;100519.31;4927322;29;19930;-78
2023/10/06 12:19:52;;;;;;;;;;;;;;;25.40;100.00;100523.00;4906356;29;20370;-79
2023/10/06 12:22:18;;;;;;;;;;;;;;;25.52;100.00;100515.88;4926571;29;19975;-81
2023/10/06 12:24:45;;;;;;;;;;;;;;;25.59;100.00;100516.69;4912569;29;19931;-76
2023/10/06 12:27:10;;;;;;;;;;;;;;;25.68;100.00;100515.38;4923752;29;19924;-78
2023/10/06 12:29:36;;;;;;;;;;;;;;;25.77;100.00;100512.44;4925562;29;19930;-80
2023/10/06 12:32:02;;;;;;;;;;;;;;;25.80;100.00;100512.00;4926448;29;20383;-82
2023/10/06 12:34:28;;;;;;;;;;;;;;;25.86;100.00;100516.53;4921753;29;19922;-81
2023/10/06 12:37:01;;;;;;;;;;;;;;;25.95;100.00;100516.03;4926022;29;19923;-78
2023/10/06 12:39:35;;;;;;;;;;;;;;;26.09;100.00;100505.94;4922894;29;20348;-82
2023/10/06 12:42:03;;;;;;;;;;;;;;;26.21;100.00;100509.59;4927912;29;19965;-82